RJAACYVR

Guest
Details From RJAA - Narita Intl
To CYVR - Vancouver Intl
Flight Number -
Tags Generated
Created
Modified
Stats Distance 4,051 nm / 7,502 km
Max Altitude 0 ft / 0 m
Waypoints 5
Social Downloads 2
Likes 0
Share VATSIM

Download

Looking for another format? Having issues loading an existing format? Contact us
Advertisement - Login to hide

Notes

Generated

Route

RJAA MORDI SIMSU NUTBE CYVR

ID Type Via Altitude Latitude Longitude Leg Dist Tot Dist Heading (true) Name
O RJAA APT - 0 ft / 0 m 35.80271˚ 140.37991˚ - 0 nm - -
MORDI FIX - 0 ft / 0 m 54.88053˚ -165.05422˚ 2492 nm 2492 nm 45° / 86° -
SIMSU FIX - 0 ft / 0 m 50.78222˚ -128.42694˚ 1335 nm 3827 nm 85° / 115° -
NUTBE FIX - 0 ft / 0 m 49.32667˚ -123.60833˚ 205 nm 4032 nm 113° / 117° -
O CYVR APT - 0 ft / 0 m 49.20509˚ -123.20131˚ 17 nm 4050 nm 114° / 115° -

Altitude Profile

Advertisement - Login to hide

Weather


0- 5 10 15 20 25 30 35+ Temperature / ° C

Clouds and Precipitation
Forecast for 2017-12-13 06:00 UTC. Updated an hour ago

Ground ~20,000 ft ~40,000 ft Winds

RJAA

Details ICAO RJAA (NRT)
Name NARITA INTL
Region Japan
Timezone Asia/Tokyo (UTC+9.0)
Stats Elevation 141 ft / 43 m (AMSL)
Location 35.776552° 140.382770°
Runways 2
Magnetic Variation 7.405° W

METAR

RJAA 130400Z 28007KT 240V320 9999 FEW030 10/M09 Q1012 NOSIG

Decode

TAF

TAF RJAA 122305Z 1300/1406 31008KT 9999 FEW030= TAF RJBB 122305Z 1300/1406 30022KT 9999 FEW020 BKN045 TEMPO 1303/1309 30023G33KT BECMG 1312/1315 35015KT

Decode

Departure Runways

ID Width Length Bearing (true) Bearing (mag) Surface Threshold Offset Overrun Length
16L 196 ft / 60 m 7,162 ft / 2,183 m 149.61° 157.02° Asphalt 190 ft / 58 m 0 ft / 0 m
16R 196 ft / 60 m 13,142 ft / 4,006 m 149.61° 157.02° Asphalt 0 ft / 0 m 410 ft / 125 m
34L 196 ft / 60 m 13,142 ft / 4,006 m 329.62° 337.03° Asphalt 0 ft / 0 m 415 ft / 126 m
34R 196 ft / 60 m 7,162 ft / 2,183 m 329.62° 337.03° Asphalt 190 ft / 58 m 0 ft / 0 m

CYVR

Details ICAO CYVR (YVR)
Name Vancouver Intl
Region Canada
Timezone America/Vancouver (UTC-8.0)
Stats Elevation 14 ft / 4 m (AMSL)
Location 49.192331° -123.187993°
Runways 4
Magnetic Variation 16.267° E

METAR

CYVR 130400Z 04004KT 20SM BKN160 BKN250 05/05 A3041 RMK AC5CI1 SLP299

Decode

TAF

TAF CYVR 130238Z 1303/1406 VRB03KT P6SM BKN210 FM130900 VRB03KT P6SM SCT220 PROB30 1311/1317 1/4SM FG VV002 FM131900 26006KT P6SM FEW040 SCT250 RMK NXT FCST BY 130600Z

Decode

Destination Runways

ID Width Length Bearing (true) Bearing (mag) Surface Threshold Offset Overrun Length
08 75 ft / 23 m 3,497 ft / 1,066 m 100.01° 83.74° Concrete 0 ft / 0 m 0 ft / 0 m
08L 200 ft / 61 m 9,910 ft / 3,021 m 99.80° 83.53° Concrete 0 ft / 0 m 0 ft / 0 m
08R 200 ft / 61 m 11,491 ft / 3,502 m 99.94° 83.67° Asphalt 0 ft / 0 m 0 ft / 0 m
12 200 ft / 61 m 7,291 ft / 2,222 m 141.91° 125.64° Asphalt 0 ft / 0 m 0 ft / 0 m
26 75 ft / 23 m 3,497 ft / 1,066 m 280.02° 263.75° Concrete 0 ft / 0 m 0 ft / 0 m
26L 200 ft / 61 m 11,491 ft / 3,502 m 279.97° 263.70° Asphalt 0 ft / 0 m 0 ft / 0 m
26R 200 ft / 61 m 9,910 ft / 3,021 m 279.83° 263.56° Concrete 0 ft / 0 m 0 ft / 0 m
30 200 ft / 61 m 7,291 ft / 2,222 m 321.93° 305.66° Asphalt 0 ft / 0 m 0 ft / 0 m

Approach Navaids

Runway Type Ident Frequency Range Bearing (true) Bearing (mag) Slope Elevation
08L Localiser ITL 110.55 MHz 18 nm / 33 km 99.85° 83.58° - 1 ft / 0 m (AMSL)
08L Glidescope ITL 110.55 MHz 10 nm / 19 km 99.82° 83.55° 3.00° 12 ft / 4 m (AMSL)
08L DME ITL 110.55 MHz 18 nm / 33 km - - - 1 ft / 0 m (AMSL)
08R Localiser IVR 109.50 MHz 18 nm / 33 km 100.17° 83.90° - 4 ft / 1 m (AMSL)
08R Glidescope IVR 109.50 MHz 10 nm / 19 km 99.95° 83.69° 3.00° 5 ft / 2 m (AMSL)
08R DME IVR 109.50 MHz 18 nm / 33 km - - - 4 ft / 1 m (AMSL)
12 Localiser IMK 111.10 MHz 18 nm / 33 km 142.04° 125.77° - 10 ft / 3 m (AMSL)
12 Glidescope IMK 111.10 MHz 10 nm / 19 km 141.92° 125.65° 3.00° 12 ft / 4 m (AMSL)
12 DME IMK 111.10 MHz 20 nm / 37 km - - - 7 ft / 2 m (AMSL)
26L Localiser IFZ 110.70 MHz 18 nm / 33 km 279.93° 263.66° - 4 ft / 1 m (AMSL)
26L Glidescope IFZ 110.70 MHz 10 nm / 19 km 279.95° 263.69° 3.00° 3 ft / 1 m (AMSL)
26L DME IFZ 111.95 MHz 20 nm / 37 km - - - 10 ft / 3 m (AMSL)
26R Localiser IRD 111.95 MHz 18 nm / 33 km 279.86° 263.60° - 9 ft / 3 m (AMSL)
26R Glidescope IRD 111.95 MHz 10 nm / 19 km 279.82° 263.55° 3.00° 1 ft / 0 m (AMSL)
26R DME IRD 110.70 MHz 20 nm / 37 km - - - 10 ft / 3 m (AMSL)

Popular Alternatives